sensor_id;sensor_type;location;lat;lon;timestamp;pressure;altitude;pressure_sealevel;temperature;humidity
72414;BME280;60995;52.154;4.498;2023-04-19T00:01:01;102775.06;;;9.80;68.89
72414;BME280;60995;52.154;4.498;2023-04-19T00:03:17;102774.81;;;9.84;68.62
72414;BME280;60995;52.154;4.498;2023-04-19T00:05:34;102770.91;;;9.72;69.01
72414;BME280;60995;52.154;4.498;2023-04-19T00:07:53;102769.44;;;9.83;68.41
72414;BME280;60995;52.154;4.498;2023-04-19T00:10:09;102772.00;;;9.86;68.62
72414;BME280;60995;52.154;4.498;2023-04-19T00:12:26;102763.41;;;9.77;68.64
72414;BME280;60995;52.154;4.498;2023-04-19T00:14:42;102769.72;;;9.78;68.71
72414;BME280;60995;52.154;4.498;2023-04-19T00:16:58;102767.97;;;9.77;68.76
72414;BME280;60995;52.154;4.498;2023-04-19T00:19:14;102764.50;;;9.91;68.60
72414;BME280;60995;52.154;4.498;2023-04-19T00:21:30;102761.81;;;9.73;68.64
72414;BME280;60995;52.154;4.498;2023-04-19T00:23:47;102767.25;;;9.73;68.95
72414;BME280;60995;52.154;4.498;2023-04-19T00:26:03;102776.34;;;9.72;69.11
72414;BME280;60995;52.154;4.498;2023-04-19T00:28:19;102759.59;;;9.82;69.09
72414;BME280;60995;52.154;4.498;2023-04-19T00:30:35;102765.25;;;9.77;68.92
72414;BME280;60995;52.154;4.498;2023-04-19T00:32:52;102769.88;;;9.75;68.87
72414;BME280;60995;52.154;4.498;2023-04-19T00:35:08;102768.63;;;9.65;69.31
72414;BME280;60995;52.154;4.498;2023-04-19T00:37:24;102759.53;;;9.66;69.22
72414;BME280;60995;52.154;4.498;2023-04-19T00:39:41;102758.69;;;9.65;69.40
72414;BME280;60995;52.154;4.498;2023-04-19T00:41:57;102765.59;;;9.71;69.32
72414;BME280;60995;52.154;4.498;2023-04-19T00:44:14;102760.03;;;9.56;69.63
72414;BME280;60995;52.154;4.498;2023-04-19T00:46:30;102763.03;;;9.52;69.83
72414;BME280;60995;52.154;4.498;2023-04-19T00:48:47;102767.94;;;9.61;69.71
72414;BME280;60995;52.154;4.498;2023-04-19T00:51:05;102761.19;;;9.68;69.91
72414;BME280;60995;52.154;4.498;2023-04-19T00:53:21;102754.09;;;9.50;70.17
72414;BME280;60995;52.154;4.498;2023-04-19T00:55:38;102751.56;;;9.47;70.49
72414;BME280;60995;52.154;4.498;2023-04-19T00:57:54;102750.09;;;9.57;70.37
72414;BME280;60995;52.154;4.498;2023-04-19T01:00:11;102747.38;;;9.57;70.08
72414;BME280;60995;52.154;4.498;2023-04-19T01:02:28;102745.09;;;9.49;70.27
72414;BME280;60995;52.154;4.498;2023-04-19T01:04:44;102750.75;;;9.44;70.80
72414;BME280;60995;52.154;4.498;2023-04-19T01:07:01;102755.25;;;9.62;70.24
72414;BME280;60995;52.154;4.498;2023-04-19T01:09:18;102745.00;;;9.51;70.74
72414;BME280;60995;52.154;4.498;2023-04-19T01:11:34;102750.09;;;9.57;70.53
72414;BME280;60995;52.154;4.498;2023-04-19T01:13:50;102745.34;;;9.60;70.52
72414;BME280;60995;52.154;4.498;2023-04-19T01:16:07;102753.44;;;9.62;70.16
72414;BME280;60995;52.154;4.498;2023-04-19T01:18:23;102738.53;;;9.53;70.48
72414;BME280;60995;52.154;4.498;2023-04-19T01:20:40;102742.75;;;9.59;70.40
72414;BME280;60995;52.154;4.498;2023-04-19T01:22:56;102743.78;;;9.56;70.70
72414;BME280;60995;52.154;4.498;2023-04-19T01:25:13;102747.09;;;9.46;71.13
72414;BME280;60995;52.154;4.498;2023-04-19T01:27:29;102745.25;;;9.46;71.30
72414;BME280;60995;52.154;4.498;2023-04-19T01:29:46;102741.50;;;9.49;70.92
72414;BME280;60995;52.154;4.498;2023-04-19T01:32:02;102744.31;;;9.63;70.34
72414;BME280;60995;52.154;4.498;2023-04-19T01:34:19;102740.13;;;9.57;70.99
72414;BME280;60995;52.154;4.498;2023-04-19T01:36:35;102740.94;;;9.42;71.54
72414;BME280;60995;52.154;4.498;2023-04-19T01:38:51;102743.75;;;9.40;71.52
72414;BME280;60995;52.154;4.498;2023-04-19T01:41:08;102741.81;;;9.42;71.11
72414;BME280;60995;52.154;4.498;2023-04-19T01:43:24;102743.75;;;9.40;71.71
72414;BME280;60995;52.154;4.498;2023-04-19T01:45:40;102738.88;;;9.47;71.37
72414;BME280;60995;52.154;4.498;2023-04-19T01:47:57;102736.06;;;9.49;71.36
72414;BME280;60995;52.154;4.498;2023-04-19T01:50:14;102736.41;;;9.42;71.62
72414;BME280;60995;52.154;4.498;2023-04-19T01:52:30;102737.19;;;9.44;71.52
72414;BME280;60995;52.154;4.498;2023-04-19T01:54:46;102743.94;;;9.37;71.77
72414;BME280;60995;52.154;4.498;2023-04-19T01:57:03;102740.75;;;9.29;72.45
72414;BME280;60995;52.154;4.498;2023-04-19T01:59:19;102736.53;;;9.23;72.62
72414;BME280;60995;52.154;4.498;2023-04-19T02:01:35;102732.16;;;9.21;72.84
72414;BME280;60995;52.154;4.498;2023-04-19T02:03:51;102731.84;;;9.27;73.11
72414;BME280;60995;52.154;4.498;2023-04-19T02:06:11;102732.94;;;9.23;72.91
72414;BME280;60995;52.154;4.498;2023-04-19T02:08:28;102728.50;;;9.22;73.04
72414;BME280;60995;52.154;4.498;2023-04-19T02:10:44;102731.66;;;9.30;73.13
72414;BME280;60995;52.154;4.498;2023-04-19T02:13:01;102735.28;;;9.13;73.11
72414;BME280;60995;52.154;4.498;2023-04-19T02:15:17;102729.63;;;9.18;73.40
72414;BME280;60995;52.154;4.498;2023-04-19T02:17:33;102735.31;;;9.29;73.33
72414;BME280;60995;52.154;4.498;2023-04-19T02:19:51;102723.56;;;9.13;73.72
72414;BME280;60995;52.154;4.498;2023-04-19T02:22:07;102730.56;;;9.17;73.41
72414;BME280;60995;52.154;4.498;2023-04-19T02:24:24;102719.34;;;9.24;73.47
72414;BME280;60995;52.154;4.498;2023-04-19T02:26:40;102731.97;;;9.24;73.29
72414;BME280;60995;52.154;4.498;2023-04-19T02:28:56;102733.41;;;9.31;73.16
72414;BME280;60995;52.154;4.498;2023-04-19T02:31:13;102738.97;;;9.28;73.34
72414;BME280;60995;52.154;4.498;2023-04-19T02:33:29;102731.34;;;9.36;73.11
72414;BME280;60995;52.154;4.498;2023-04-19T02:35:45;102730.72;;;9.31;73.62
72414;BME280;60995;52.154;4.498;2023-04-19T02:38:02;102726.88;;;9.35;73.28
72414;BME280;60995;52.154;4.498;2023-04-19T02:40:19;102732.53;;;9.31;73.48
72414;BME280;60995;52.154;4.498;2023-04-19T02:42:37;102735.19;;;9.32;73.36
72414;BME280;60995;52.154;4.498;2023-04-19T02:44:53;102733.97;;;9.38;73.43
72414;BME280;60995;52.154;4.498;2023-04-19T02:47:10;102730.22;;;9.40;73.24
72414;BME280;60995;52.154;4.498;2023-04-19T02:49:26;102724.53;;;9.45;73.01
72414;BME280;60995;52.154;4.498;2023-04-19T02:51:42;102738.78;;;9.49;73.23
72414;BME280;60995;52.154;4.498;2023-04-19T02:53:59;102734.50;;;9.44;73.46
72414;BME280;60995;52.154;4.498;2023-04-19T02:56:15;102726.91;;;9.51;73.14
72414;BME280;60995;52.154;4.498;2023-04-19T02:58:31;102730.31;;;9.55;72.82
72414;BME280;60995;52.154;4.498;2023-04-19T03:00:47;102742.59;;;9.62;73.32
72414;BME280;60995;52.154;4.498;2023-04-19T03:03:04;102735.41;;;9.61;73.22
72414;BME280;60995;52.154;4.498;2023-04-19T03:05:21;102731.59;;;9.81;72.52
72414;BME280;60995;52.154;4.498;2023-04-19T03:07:38;102745.75;;;9.70;72.81
72414;BME280;60995;52.154;4.498;2023-04-19T03:09:54;102735.94;;;9.68;73.13
72414;BME280;60995;52.154;4.498;2023-04-19T03:12:10;102740.84;;;9.77;72.77
72414;BME280;60995;52.154;4.498;2023-04-19T03:14:27;102739.19;;;9.74;72.79
72414;BME280;60995;52.154;4.498;2023-04-19T03:16:43;102738.06;;;9.79;73.04
72414;BME280;60995;52.154;4.498;2023-04-19T03:18:59;102736.84;;;10.00;72.17
72414;BME280;60995;52.154;4.498;2023-04-19T03:21:15;102734.91;;;9.86;72.70
72414;BME280;60995;52.154;4.498;2023-04-19T03:23:32;102725.66;;;10.06;71.93
72414;BME280;60995;52.154;4.498;2023-04-19T03:25:48;102724.97;;;10.03;72.38
72414;BME280;60995;52.154;4.498;2023-04-19T03:28:05;102733.00;;;10.04;72.22
72414;BME280;60995;52.154;4.498;2023-04-19T03:30:21;102730.19;;;10.06;72.11
72414;BME280;60995;52.154;4.498;2023-04-19T03:32:38;102727.75;;;10.01;72.08
72414;BME280;60995;52.154;4.498;2023-04-19T03:34:54;102720.25;;;10.06;72.29
72414;BME280;60995;52.154;4.498;2023-04-19T03:37:10;102716.91;;;10.01;72.63
72414;BME280;60995;52.154;4.498;2023-04-19T03:39:27;102724.84;;;10.20;71.82
72414;BME280;60995;52.154;4.498;2023-04-19T03:41:43;102723.19;;;10.18;72.16
72414;BME280;60995;52.154;4.498;2023-04-19T03:43:59;102727.31;;;10.25;71.99
72414;BME280;60995;52.154;4.498;2023-04-19T03:46:15;102719.69;;;10.16;72.00
72414;BME280;60995;52.154;4.498;2023-04-19T03:48:32;102712.34;;;10.18;72.12
72414;BME280;60995;52.154;4.498;2023-04-19T03:50:50;102728.25;;;10.24;71.75
72414;BME280;60995;52.154;4.498;2023-04-19T03:53:06;102724.69;;;10.23;71.98
72414;BME280;60995;52.154;4.498;2023-04-19T03:55:23;102727.22;;;10.42;71.11
72414;BME280;60995;52.154;4.498;2023-04-19T03:57:39;102725.47;;;10.41;71.58
72414;BME280;60995;52.154;4.498;2023-04-19T03:59:56;102726.50;;;10.39;71.67
72414;BME280;60995;52.154;4.498;2023-04-19T04:02:12;102731.28;;;10.35;71.97
72414;BME280;60995;52.154;4.498;2023-04-19T04:04:28;102728.00;;;10.45;71.39
72414;BME280;60995;52.154;4.498;2023-04-19T04:06:44;102730.38;;;10.51;71.26
72414;BME280;60995;52.154;4.498;2023-04-19T04:09:01;102733.34;;;10.46;71.86
72414;BME280;60995;52.154;4.498;2023-04-19T04:11:17;102728.78;;;10.47;71.92
72414;BME280;60995;52.154;4.498;2023-04-19T04:13:33;102728.25;;;10.56;71.39
72414;BME280;60995;52.154;4.498;2023-04-19T04:15:50;102736.91;;;10.31;72.37
72414;BME280;60995;52.154;4.498;2023-04-19T04:18:06;102737.56;;;10.36;71.91
72414;BME280;60995;52.154;4.498;2023-04-19T04:20:23;102738.78;;;10.30;72.08
72414;BME280;60995;52.154;4.498;2023-04-19T04:22:42;102725.19;;;10.30;71.62
72414;BME280;60995;52.154;4.498;2023-04-19T04:25:00;102734.59;;;10.40;71.65
72414;BME280;60995;52.154;4.498;2023-04-19T04:27:17;102725.66;;;10.38;71.77
72414;BME280;60995;52.154;4.498;2023-04-19T04:29:36;102731.59;;;10.29;71.59
72414;BME280;60995;52.154;4.498;2023-04-19T04:31:53;102731.59;;;10.29;72.20
72414;BME280;60995;52.154;4.498;2023-04-19T04:34:11;102739.44;;;10.34;71.60
72414;BME280;60995;52.154;4.498;2023-04-19T04:36:27;102745.69;;;10.36;71.63
72414;BME280;60995;52.154;4.498;2023-04-19T04:38:44;102741.19;;;10.35;71.96
72414;BME280;60995;52.154;4.498;2023-04-19T04:41:00;102739.13;;;10.24;71.66
72414;BME280;60995;52.154;4.498;2023-04-19T04:43:17;102735.78;;;10.35;71.72
72414;BME280;60995;52.154;4.498;2023-04-19T04:45:33;102742.13;;;10.35;71.43
72414;BME280;60995;52.154;4.498;2023-04-19T04:47:50;102741.38;;;10.48;71.50
72414;BME280;60995;52.154;4.498;2023-04-19T04:50:07;102740.34;;;10.34;71.31
72414;BME280;60995;52.154;4.498;2023-04-19T04:52:23;102744.38;;;10.43;71.48
72414;BME280;60995;52.154;4.498;2023-04-19T04:54:40;102741.69;;;10.43;71.30
72414;BME280;60995;52.154;4.498;2023-04-19T04:56:57;102744.66;;;10.38;71.87
72414;BME280;60995;52.154;4.498;2023-04-19T04:59:14;102737.63;;;10.34;71.27
72414;BME280;60995;52.154;4.498;2023-04-19T05:01:30;102742.25;;;10.32;71.69
72414;BME280;60995;52.154;4.498;2023-04-19T05:03:46;102741.59;;;10.45;70.66
72414;BME280;60995;52.154;4.498;2023-04-19T05:06:02;102738.25;;;10.39;70.99
72414;BME280;60995;52.154;4.498;2023-04-19T05:08:19;102733.25;;;10.48;70.67
72414;BME280;60995;52.154;4.498;2023-04-19T05:10:35;102741.56;;;10.29;70.77
72414;BME280;60995;52.154;4.498;2023-04-19T05:12:52;102752.44;;;10.45;70.64
72414;BME280;60995;52.154;4.498;2023-04-19T05:15:08;102740.97;;;10.39;70.69
72414;BME280;60995;52.154;4.498;2023-04-19T05:17:26;102750.16;;;10.37;70.63
72414;BME280;60995;52.154;4.498;2023-04-19T05:19:43;102744.59;;;10.54;69.92
72414;BME280;60995;52.154;4.498;2023-04-19T05:21:59;102746.28;;;10.57;69.59
72414;BME280;60995;52.154;4.498;2023-04-19T05:24:15;102760.47;;;10.46;69.60
72414;BME280;60995;52.154;4.498;2023-04-19T05:26:31;102754.09;;;10.47;69.66
72414;BME280;60995;52.154;4.498;2023-04-19T05:28:48;102749.97;;;10.56;69.04
72414;BME280;60995;52.154;4.498;2023-04-19T05:31:04;102756.97;;;10.60;69.70
72414;BME280;60995;52.154;4.498;2023-04-19T05:33:20;102763.44;;;10.41;69.13
72414;BME280;60995;52.154;4.498;2023-04-19T05:35:37;102769.03;;;10.70;68.88
72414;BME280;60995;52.154;4.498;2023-04-19T05:37:54;102776.22;;;10.55;68.54
72414;BME280;60995;52.154;4.498;2023-04-19T05:40:11;102781.41;;;10.60;68.83
72414;BME280;60995;52.154;4.498;2023-04-19T05:42:28;102774.03;;;10.62;68.57
72414;BME280;60995;52.154;4.498;2023-04-19T05:44:44;102765.91;;;10.46;69.21
72414;BME280;60995;52.154;4.498;2023-04-19T05:47:01;102776.75;;;10.62;68.62
72414;BME280;60995;52.154;4.498;2023-04-19T05:49:18;102780.78;;;10.55;68.50
72414;BME280;60995;52.154;4.498;2023-04-19T05:51:34;102784.91;;;10.92;67.87
72414;BME280;60995;52.154;4.498;2023-04-19T05:53:50;102777.41;;;10.82;67.69
72414;BME280;60995;52.154;4.498;2023-04-19T05:56:08;102776.16;;;11.18;66.83
72414;BME280;60995;52.154;4.498;2023-04-19T05:58:24;102775.91;;;11.06;65.98
72414;BME280;60995;52.154;4.498;2023-04-19T06:00:41;102772.03;;;11.11;66.15
72414;BME280;60995;52.154;4.498;2023-04-19T06:02:58;102775.13;;;11.78;64.33
72414;BME280;60995;52.154;4.498;2023-04-19T06:05:14;102786.41;;;13.23;59.59
72414;BME280;60995;52.154;4.498;2023-04-19T06:07:31;102766.19;;;14.88;54.08
72414;BME280;60995;52.154;4.498;2023-04-19T06:09:47;102760.25;;;15.42;51.77
72414;BME280;60995;52.154;4.498;2023-04-19T06:12:06;102766.59;;;16.65;47.79
72414;BME280;60995;52.154;4.498;2023-04-19T06:14:23;102766.28;;;16.03;48.64
72414;BME280;60995;52.154;4.498;2023-04-19T06:16:39;102763.09;;;16.96;46.37
72414;BME280;60995;52.154;4.498;2023-04-19T06:18:56;102754.38;;;17.02;45.46
72414;BME280;60995;52.154;4.498;2023-04-19T06:21:12;102759.91;;;16.91;45.50
72414;BME280;60995;52.154;4.498;2023-04-19T06:23:28;102766.47;;;16.23;46.21
72414;BME280;60995;52.154;4.498;2023-04-19T06:25:45;102766.28;;;15.92;47.15
72414;BME280;60995;52.154;4.498;2023-04-19T06:28:03;102757.56;;;16.75;46.42
72414;BME280;60995;52.154;4.498;2023-04-19T06:30:19;102761.63;;;16.59;44.82
72414;BME280;60995;52.154;4.498;2023-04-19T06:32:36;102764.41;;;17.65;42.64
72414;BME280;60995;52.154;4.498;2023-04-19T06:34:52;102760.88;;;18.15;41.47
72414;BME280;60995;52.154;4.498;2023-04-19T06:37:08;102768.41;;;18.32;40.47
72414;BME280;60995;52.154;4.498;2023-04-19T06:39:25;102777.56;;;17.61;41.59
72414;BME280;60995;52.154;4.498;2023-04-19T06:41:42;102766.63;;;18.02;40.83
72414;BME280;60995;52.154;4.498;2023-04-19T06:43:58;102772.16;;;18.31;39.94
72414;BME280;60995;52.154;4.498;2023-04-19T06:46:14;102768.97;;;18.16;39.94
72414;BME280;60995;52.154;4.498;2023-04-19T06:48:32;102771.16;;;17.09;41.30
72414;BME280;60995;52.154;4.498;2023-04-19T06:50:49;102764.25;;;16.93;41.60
72414;BME280;60995;52.154;4.498;2023-04-19T06:53:06;102757.81;;;16.50;42.23
72414;BME280;60995;52.154;4.498;2023-04-19T06:55:22;102766.97;;;18.28;39.05
72414;BME280;60995;52.154;4.498;2023-04-19T06:57:38;102770.94;;;17.43;39.98
72414;BME280;60995;52.154;4.498;2023-04-19T06:59:54;102762.81;;;17.93;38.14
72414;BME280;60995;52.154;4.498;2023-04-19T07:02:11;102759.13;;;17.21;39.25
72414;BME280;60995;52.154;4.498;2023-04-19T07:04:27;102757.00;;;16.27;41.62
72414;BME280;60995;52.154;4.498;2023-04-19T07:06:47;102765.34;;;16.58;41.04
72414;BME280;60995;52.154;4.498;2023-04-19T07:09:05;102762.09;;;18.81;36.36
72414;BME280;60995;52.154;4.498;2023-04-19T07:11:23;102759.78;;;18.57;35.86
72414;BME280;60995;52.154;4.498;2023-04-19T07:13:39;102768.44;;;19.30;34.55
72414;BME280;60995;52.154;4.498;2023-04-19T07:15:55;102763.25;;;17.67;36.93
72414;BME280;60995;52.154;4.498;2023-04-19T07:18:11;102764.06;;;17.48;37.31
72414;BME280;60995;52.154;4.498;2023-04-19T07:20:30;102767.66;;;18.11;36.73
72414;BME280;60995;52.154;4.498;2023-04-19T07:22:47;102750.34;;;17.89;36.35
72414;BME280;60995;52.154;4.498;2023-04-19T07:25:03;102758.78;;;19.07;34.60
72414;BME280;60995;52.154;4.498;2023-04-19T07:27:20;102762.09;;;18.81;33.99
72414;BME280;60995;52.154;4.498;2023-04-19T07:29:36;102758.50;;;18.90;33.86
72414;BME280;60995;52.154;4.498;2023-04-19T07:31:52;102754.66;;;19.78;33.22
72414;BME280;60995;52.154;4.498;2023-04-19T07:34:10;102748.38;;;19.95;31.68
72414;BME280;60995;52.154;4.498;2023-04-19T07:36:26;102742.66;;;18.24;34.04
72414;BME280;60995;52.154;4.498;2023-04-19T07:38:42;102752.56;;;19.05;33.29
72414;BME280;60995;52.154;4.498;2023-04-19T07:40:59;102746.97;;;20.55;30.79
72414;BME280;60995;52.154;4.498;2023-04-19T07:43:15;102745.13;;;19.15;32.28
72414;BME280;60995;52.154;4.498;2023-04-19T07:45:31;102747.31;;;18.82;32.69
72414;BME280;60995;52.154;4.498;2023-04-19T07:47:48;102746.72;;;18.29;33.26
72414;BME280;60995;52.154;4.498;2023-04-19T07:50:04;102757.09;;;18.06;33.65
72414;BME280;60995;52.154;4.498;2023-04-19T07:52:22;102748.31;;;17.91;33.38
72414;BME280;60995;52.154;4.498;2023-04-19T07:54:41;102760.72;;;18.26;33.15
72414;BME280;60995;52.154;4.498;2023-04-19T07:56:58;102754.78;;;18.21;33.17
72414;BME280;60995;52.154;4.498;2023-04-19T07:59:14;102753.09;;;17.58;33.93
72414;BME280;60995;52.154;4.498;2023-04-19T08:01:30;102753.63;;;18.24;33.41
72414;BME280;60995;52.154;4.498;2023-04-19T08:03:47;102747.50;;;19.47;31.40
72414;BME280;60995;52.154;4.498;2023-04-19T08:06:04;102743.63;;;19.88;30.75
72414;BME280;60995;52.154;4.498;2023-04-19T08:08:26;102755.28;;;20.27;29.42
72414;BME280;60995;52.154;4.498;2023-04-19T08:10:42;102754.09;;;17.88;32.45
72414;BME280;60995;52.154;4.498;2023-04-19T08:12:59;102741.13;;;18.90;30.98
72414;BME280;60995;52.154;4.498;2023-04-19T08:15:15;102737.50;;;18.60;31.51
72414;BME280;60995;52.154;4.498;2023-04-19T08:17:32;102738.72;;;19.44;30.44
72414;BME280;60995;52.154;4.498;2023-04-19T08:19:49;102750.22;;;18.61;30.77
72414;BME280;60995;52.154;4.498;2023-04-19T08:22:06;102749.94;;;18.64;31.11
72414;BME280;60995;52.154;4.498;2023-04-19T08:24:22;102752.13;;;18.80;30.84
72414;BME280;60995;52.154;4.498;2023-04-19T08:26:39;102752.38;;;18.38;31.46
72414;BME280;60995;52.154;4.498;2023-04-19T08:28:55;102750.34;;;18.30;32.32
72414;BME280;60995;52.154;4.498;2023-04-19T08:31:11;102739.53;;;18.58;31.59
72414;BME280;60995;52.154;4.498;2023-04-19T08:33:28;102739.66;;;18.95;30.98
72414;BME280;60995;52.154;4.498;2023-04-19T08:35:44;102755.47;;;18.93;30.33
72414;BME280;60995;52.154;4.498;2023-04-19T08:38:01;102746.72;;;18.29;31.75
72414;BME280;60995;52.154;4.498;2023-04-19T08:40:17;102741.41;;;18.57;31.93
72414;BME280;60995;52.154;4.498;2023-04-19T08:42:34;102743.72;;;18.72;31.67
72414;BME280;60995;52.154;4.498;2023-04-19T08:44:51;102740.81;;;19.97;29.82
72414;BME280;60995;52.154;4.498;2023-04-19T08:47:10;102733.78;;;21.29;27.57
72414;BME280;60995;52.154;4.498;2023-04-19T08:49:27;102736.78;;;20.20;29.30
72414;BME280;60995;52.154;4.498;2023-04-19T08:51:43;102747.09;;;20.36;29.04
72414;BME280;60995;52.154;4.498;2023-04-19T08:54:03;102742.34;;;19.82;28.96
72414;BME280;60995;52.154;4.498;2023-04-19T08:56:21;102743.97;;;19.27;29.39
72414;BME280;60995;52.154;4.498;2023-04-19T08:58:38;102738.56;;;20.11;28.44
72414;BME280;60995;52.154;4.498;2023-04-19T09:00:57;102732.53;;;20.43;27.88
72414;BME280;60995;52.154;4.498;2023-04-19T09:03:13;102733.50;;;19.78;28.10
72414;BME280;60995;52.154;4.498;2023-04-19T09:05:29;102729.75;;;20.25;27.60
72414;BME280;60995;52.154;4.498;2023-04-19T09:07:46;102727.66;;;20.37;27.09
72414;BME280;60995;52.154;4.498;2023-04-19T09:10:10;102731.03;;;19.38;29.11
72414;BME280;60995;52.154;4.498;2023-04-19T09:12:27;102726.88;;;19.24;29.63
72414;BME280;60995;52.154;4.498;2023-04-19T09:14:45;102739.00;;;19.88;28.16
72414;BME280;60995;52.154;4.498;2023-04-19T09:17:12;102730.88;;;19.49;28.98
72414;BME280;60995;52.154;4.498;2023-04-19T09:19:45;102728.91;;;19.59;28.79
72414;BME280;60995;52.154;4.498;2023-04-19T09:22:12;102725.22;;;19.41;28.22
72414;BME280;60995;52.154;4.498;2023-04-19T09:24:38;102724.00;;;19.15;29.37
72414;BME280;60995;52.154;4.498;2023-04-19T09:26:55;102732.00;;;18.99;29.29
72414;BME280;60995;52.154;4.498;2023-04-19T09:29:15;102722.66;;;19.29;28.98
72414;BME280;60995;52.154;4.498;2023-04-19T09:31:36;102721.03;;;19.74;29.01
72414;BME280;60995;52.154;4.498;2023-04-19T09:33:53;102713.31;;;20.88;26.43
72414;BME280;60995;52.154;4.498;2023-04-19T09:36:10;102717.34;;;21.46;25.73
72414;BME280;60995;52.154;4.498;2023-04-19T09:38:50;102703.38;;;21.21;24.94
72414;BME280;60995;52.154;4.498;2023-04-19T09:41:07;102706.06;;;20.32;25.85
72414;BME280;60995;52.154;4.498;2023-04-19T09:43:23;102706.34;;;19.56;28.19
72414;BME280;60995;52.154;4.498;2023-04-19T09:45:44;102715.72;;;20.00;27.14
72414;BME280;60995;52.154;4.498;2023-04-19T09:48:03;102709.38;;;19.90;27.13
72414;BME280;60995;52.154;4.498;2023-04-19T09:50:22;102699.25;;;19.06;28.59
72414;BME280;60995;52.154;4.498;2023-04-19T09:52:38;102716.22;;;18.91;28.03
72414;BME280;60995;52.154;4.498;2023-04-19T09:54:57;102710.28;;;18.66;27.59
72414;BME280;60995;52.154;4.498;2023-04-19T09:57:17;102716.63;;;18.08;29.09
72414;BME280;60995;52.154;4.498;2023-04-19T09:59:34;102690.47;;;20.05;26.57
72414;BME280;60995;52.154;4.498;2023-04-19T10:01:58;102710.81;;;19.94;26.41
72414;BME280;60995;52.154;4.498;2023-04-19T10:04:16;102703.91;;;18.76;28.24
72414;BME280;60995;52.154;4.498;2023-04-19T10:06:38;102697.69;;;19.88;26.84
72414;BME280;60995;52.154;4.498;2023-04-19T10:08:56;102695.00;;;19.69;27.47
72414;BME280;60995;52.154;4.498;2023-04-19T10:11:20;102699.97;;;19.55;26.67
72414;BME280;60995;52.154;4.498;2023-04-19T10:13:38;102699.56;;;19.03;27.52
72414;BME280;60995;52.154;4.498;2023-04-19T10:15:56;102704.19;;;18.43;27.87
72414;BME280;60995;52.154;4.498;2023-04-19T10:18:15;102694.09;;;19.68;26.76
72414;BME280;60995;52.154;4.498;2023-04-19T10:20:52;102686.97;;;18.02;27.76
72414;BME280;60995;52.154;4.498;2023-04-19T10:23:15;102697.13;;;18.80;27.27
72414;BME280;60995;52.154;4.498;2023-04-19T10:25:35;102699.44;;;18.75;27.36
72414;BME280;60995;52.154;4.498;2023-04-19T10:27:53;102698.50;;;17.96;27.96
72414;BME280;60995;52.154;4.498;2023-04-19T10:30:20;102704.63;;;18.78;26.82
72414;BME280;60995;52.154;4.498;2023-04-19T10:32:43;102699.00;;;18.21;27.13
72414;BME280;60995;52.154;4.498;2023-04-19T10:35:01;102689.78;;;19.65;26.28
72414;BME280;60995;52.154;4.498;2023-04-19T10:37:24;102697.69;;;19.41;26.08
72414;BME280;60995;52.154;4.498;2023-04-19T10:39:42;102687.72;;;18.73;26.37
72414;BME280;60995;52.154;4.498;2023-04-19T10:41:59;102688.47;;;18.55;26.19
72414;BME280;60995;52.154;4.498;2023-04-19T10:44:16;102694.25;;;18.42;26.52
72414;BME280;60995;52.154;4.498;2023-04-19T10:51:17;102691.63;;;17.71;26.21
72414;BME280;60995;52.154;4.498;2023-04-19T10:53:45;102680.59;;;17.61;27.52
72414;BME280;60995;52.154;4.498;2023-04-19T10:56:02;102687.13;;;18.10;27.23
72414;BME280;60995;52.154;4.498;2023-04-19T10:58:19;102690.63;;;18.91;25.76
72414;BME280;60995;52.154;4.498;2023-04-19T11:00:35;102680.31;;;18.83;25.92
72414;BME280;60995;52.154;4.498;2023-04-19T11:02:53;102685.38;;;18.29;26.87
72414;BME280;60995;52.154;4.498;2023-04-19T11:05:09;102687.97;;;17.29;28.01
72414;BME280;60995;52.154;4.498;2023-04-19T11:07:36;102677.13;;;17.99;26.58
72414;BME280;60995;52.154;4.498;2023-04-19T11:09:52;102675.25;;;17.59;27.74
72414;BME280;60995;52.154;4.498;2023-04-19T11:12:12;102680.03;;;18.27;26.79
72414;BME280;60995;52.154;4.498;2023-04-19T11:14:41;102669.47;;;18.91;26.33
72414;BME280;60995;52.154;4.498;2023-04-19T11:17:13;102689.44;;;18.15;27.47
72414;BME280;60995;52.154;4.498;2023-04-19T11:19:33;102689.59;;;18.23;26.69
72414;BME280;60995;52.154;4.498;2023-04-19T11:21:50;102673.94;;;17.94;26.97
72414;BME280;60995;52.154;4.498;2023-04-19T11:24:10;102675.56;;;18.16;27.08
72414;BME280;60995;52.154;4.498;2023-04-19T11:26:27;102685.09;;;18.12;26.92
72414;BME280;60995;52.154;4.498;2023-04-19T11:28:43;102664.28;;;17.59;27.33
72414;BME280;60995;52.154;4.498;2023-04-19T11:31:00;102673.97;;;17.32;27.88
72414;BME280;60995;52.154;4.498;2023-04-19T11:33:18;102659.78;;;17.58;27.66
72414;BME280;60995;52.154;4.498;2023-04-19T11:35:42;102653.13;;;17.51;27.71
72414;BME280;60995;52.154;4.498;2023-04-19T11:37:58;102663.31;;;17.90;27.78
72414;BME280;60995;52.154;4.498;2023-04-19T11:40:19;102651.75;;;17.66;27.32
72414;BME280;60995;52.154;4.498;2023-04-19T11:42:37;102668.81;;;17.80;27.65
72414;BME280;60995;52.154;4.498;2023-04-19T11:44:53;102652.38;;;17.08;28.23
72414;BME280;60995;52.154;4.498;2023-04-19T11:47:12;102644.81;;;17.00;27.89
72414;BME280;60995;52.154;4.498;2023-04-19T11:49:30;102645.59;;;16.49;28.87
72414;BME280;60995;52.154;4.498;2023-04-19T11:51:54;102647.72;;;17.09;27.94
72414;BME280;60995;52.154;4.498;2023-04-19T11:54:15;102642.59;;;17.56;26.98
72414;BME280;60995;52.154;4.498;2023-04-19T11:56:31;102636.38;;;17.13;27.57
72414;BME280;60995;52.154;4.498;2023-04-19T11:58:47;102649.03;;;17.45;26.29
72414;BME280;60995;52.154;4.498;2023-04-19T12:01:17;102631.66;;;17.25;27.09
72414;BME280;60995;52.154;4.498;2023-04-19T12:03:44;102641.31;;;16.35;28.06
72414;BME280;60995;52.154;4.498;2023-04-19T12:06:10;102640.38;;;16.46;28.10